Tannehill, Louisiana
Current Conditions -  °F | °C
As of 2:55 PM on Friday 31 Oct 2014 (Local Time) from KRSN Reporting Station
Clear Clear  
Wind Chill: 67°   Ceiling: Unl
Heat Index: 67°   Visibility: 10mi
Dew Point: 46°   Wind: 10mph
Humidity: 47%   Direction: 340°NNW
Pressure: 30.19"   Gusts: 18mph
Location:  32.0727°N, 92.6697°W
Report Text: KRSN 311955Z AUTO 34009G16KT 10SM CLR 20/08 A3019 RMK AO2 T01960080
Loading
Personal Weather Stations






























Interactive Weather Map
Tropical Storm Tracking
New forecast layout! Learn more

10-Day Weather Forecast

Advertisements
Track Severe Weather on mobile